Barrow upon Soar, United Kingdom
Current Conditions -  °F | °C
As of 9:20 AM on Saturday 20 Dec 2014 (Local Time) from EGNX Reporting Station
Light Rain Light Rain  
Wind Chill: 35°   Ceiling: 2900
Heat Index: 45°   Visibility: 6mi
Dew Point: 37°   Wind: 25mph
Humidity: 76%   Direction: 270°W
Pressure: 30.15"   Gusts: NA
Location:  52.75°N, 1.15°W
Report Text: EGNX 200920Z 27022KT 9999 -RA FEW012 BKN029 07/03 Q1021
Loading
Personal Weather Stations






























Interactive Weather Map New forecast layout! Learn more

10-Day Weather Forecast

Advertisements
Track Severe Weather on mobile